sensor_id;sensor_type;location;lat;lon;timestamp;P1;durP1;ratioP1;P2;durP2;ratioP2
18090;SDS011;9172;49.948;9.208;2022-10-16T00:01:43;2.50;;;0.93;;
18090;SDS011;9172;49.948;9.208;2022-10-16T00:04:12;0.90;;;0.70;;
18090;SDS011;9172;49.948;9.208;2022-10-16T00:06:41;0.93;;;0.70;;
18090;SDS011;9172;49.948;9.208;2022-10-16T00:09:11;1.53;;;0.77;;
18090;SDS011;9172;49.948;9.208;2022-10-16T00:11:39;1.37;;;0.63;;
18090;SDS011;9172;49.948;9.208;2022-10-16T00:14:10;1.63;;;1.00;;
18090;SDS011;9172;49.948;9.208;2022-10-16T00:16:40;1.63;;;0.70;;
18090;SDS011;9172;49.948;9.208;2022-10-16T00:19:09;3.70;;;0.80;;
18090;SDS011;9172;49.948;9.208;2022-10-16T00:21:39;2.07;;;0.90;;
18090;SDS011;9172;49.948;9.208;2022-10-16T00:24:09;8.37;;;1.17;;
18090;SDS011;9172;49.948;9.208;2022-10-16T00:26:39;2.30;;;0.80;;
18090;SDS011;9172;49.948;9.208;2022-10-16T00:29:08;0.70;;;0.60;;
18090;SDS011;9172;49.948;9.208;2022-10-16T00:31:38;0.93;;;0.70;;
18090;SDS011;9172;49.948;9.208;2022-10-16T00:34:06;1.70;;;0.70;;
18090;SDS011;9172;49.948;9.208;2022-10-16T00:36:35;0.80;;;0.60;;
18090;SDS011;9172;49.948;9.208;2022-10-16T00:39:03;1.53;;;0.83;;
18090;SDS011;9172;49.948;9.208;2022-10-16T00:41:32;2.97;;;0.73;;
18090;SDS011;9172;49.948;9.208;2022-10-16T00:44:01;1.90;;;0.73;;
18090;SDS011;9172;49.948;9.208;2022-10-16T00:46:34;2.23;;;1.00;;
18090;SDS011;9172;49.948;9.208;2022-10-16T00:49:05;2.60;;;0.80;;
18090;SDS011;9172;49.948;9.208;2022-10-16T00:51:36;2.40;;;0.80;;
18090;SDS011;9172;49.948;9.208;2022-10-16T00:54:08;0.63;;;0.60;;
18090;SDS011;9172;49.948;9.208;2022-10-16T00:56:38;0.60;;;0.60;;
18090;SDS011;9172;49.948;9.208;2022-10-16T00:59:07;1.40;;;0.73;;
18090;SDS011;9172;49.948;9.208;2022-10-16T01:01:38;2.33;;;0.60;;
18090;SDS011;9172;49.948;9.208;2022-10-16T01:04:07;17.47;;;1.33;;
18090;SDS011;9172;49.948;9.208;2022-10-16T01:06:36;0.60;;;0.60;;
18090;SDS011;9172;49.948;9.208;2022-10-16T01:09:11;0.90;;;0.60;;
18090;SDS011;9172;49.948;9.208;2022-10-16T01:11:44;0.90;;;0.70;;
18090;SDS011;9172;49.948;9.208;2022-10-16T01:14:21;1.00;;;0.60;;
18090;SDS011;9172;49.948;9.208;2022-10-16T01:16:54;0.70;;;0.60;;
18090;SDS011;9172;49.948;9.208;2022-10-16T01:19:30;0.43;;;0.40;;
18090;SDS011;9172;49.948;9.208;2022-10-16T01:22:05;1.40;;;0.70;;
18090;SDS011;9172;49.948;9.208;2022-10-16T01:24:38;0.50;;;0.40;;
18090;SDS011;9172;49.948;9.208;2022-10-16T01:27:12;1.43;;;0.50;;
18090;SDS011;9172;49.948;9.208;2022-10-16T01:29:48;0.70;;;0.40;;
18090;SDS011;9172;49.948;9.208;2022-10-16T01:32:31;0.90;;;0.50;;
18090;SDS011;9172;49.948;9.208;2022-10-16T01:34:51;0.60;;;0.47;;
18090;SDS011;9172;49.948;9.208;2022-10-16T01:37:25;2.60;;;0.50;;
18090;SDS011;9172;49.948;9.208;2022-10-16T01:39:58;2.07;;;0.57;;
18090;SDS011;9172;49.948;9.208;2022-10-16T01:42:30;0.80;;;0.50;;
18090;SDS011;9172;49.948;9.208;2022-10-16T01:45:01;0.87;;;0.40;;
18090;SDS011;9172;49.948;9.208;2022-10-16T01:47:34;0.90;;;0.57;;
18090;SDS011;9172;49.948;9.208;2022-10-16T01:50:05;2.37;;;0.53;;
18090;SDS011;9172;49.948;9.208;2022-10-16T01:52:37;0.70;;;0.50;;
18090;SDS011;9172;49.948;9.208;2022-10-16T01:55:09;1.37;;;0.50;;
18090;SDS011;9172;49.948;9.208;2022-10-16T01:57:39;0.50;;;0.43;;
18090;SDS011;9172;49.948;9.208;2022-10-16T02:00:12;0.63;;;0.40;;
18090;SDS011;9172;49.948;9.208;2022-10-16T02:02:44;1.00;;;0.60;;
18090;SDS011;9172;49.948;9.208;2022-10-16T02:05:18;0.40;;;0.40;;
18090;SDS011;9172;49.948;9.208;2022-10-16T02:07:48;3.90;;;0.50;;
18090;SDS011;9172;49.948;9.208;2022-10-16T02:10:17;2.20;;;0.50;;
18090;SDS011;9172;49.948;9.208;2022-10-16T02:12:48;0.63;;;0.40;;
18090;SDS011;9172;49.948;9.208;2022-10-16T02:15:19;1.10;;;0.60;;
18090;SDS011;9172;49.948;9.208;2022-10-16T02:17:47;6.63;;;0.80;;
18090;SDS011;9172;49.948;9.208;2022-10-16T02:20:16;1.03;;;0.50;;
18090;SDS011;9172;49.948;9.208;2022-10-16T02:22:47;0.73;;;0.40;;
18090;SDS011;9172;49.948;9.208;2022-10-16T02:25:19;1.73;;;0.40;;
18090;SDS011;9172;49.948;9.208;2022-10-16T02:27:51;1.37;;;1.00;;
18090;SDS011;9172;49.948;9.208;2022-10-16T02:30:23;1.00;;;0.50;;
18090;SDS011;9172;49.948;9.208;2022-10-16T02:32:53;3.00;;;0.73;;
18090;SDS011;9172;49.948;9.208;2022-10-16T02:35:23;1.43;;;0.67;;
18090;SDS011;9172;49.948;9.208;2022-10-16T02:37:53;0.73;;;0.60;;
18090;SDS011;9172;49.948;9.208;2022-10-16T02:40:23;1.23;;;0.60;;
18090;SDS011;9172;49.948;9.208;2022-10-16T02:42:54;1.47;;;0.50;;
18090;SDS011;9172;49.948;9.208;2022-10-16T02:45:24;1.10;;;0.50;;
18090;SDS011;9172;49.948;9.208;2022-10-16T02:47:53;0.70;;;0.53;;
18090;SDS011;9172;49.948;9.208;2022-10-16T02:50:21;0.60;;;0.50;;
18090;SDS011;9172;49.948;9.208;2022-10-16T02:52:51;2.23;;;0.53;;
18090;SDS011;9172;49.948;9.208;2022-10-16T02:55:22;2.37;;;0.60;;
18090;SDS011;9172;49.948;9.208;2022-10-16T02:57:53;3.13;;;0.60;;
18090;SDS011;9172;49.948;9.208;2022-10-16T03:00:21;1.30;;;0.80;;
18090;SDS011;9172;49.948;9.208;2022-10-16T03:02:50;0.70;;;0.63;;
18090;SDS011;9172;49.948;9.208;2022-10-16T03:05:19;1.60;;;0.77;;
18090;SDS011;9172;49.948;9.208;2022-10-16T03:07:48;2.63;;;0.87;;
18090;SDS011;9172;49.948;9.208;2022-10-16T03:10:18;0.93;;;0.73;;
18090;SDS011;9172;49.948;9.208;2022-10-16T03:12:47;1.80;;;1.00;;
18090;SDS011;9172;49.948;9.208;2022-10-16T03:15:16;0.93;;;0.83;;
18090;SDS011;9172;49.948;9.208;2022-10-16T03:17:44;2.63;;;0.83;;
18090;SDS011;9172;49.948;9.208;2022-10-16T03:20:15;3.73;;;1.03;;
18090;SDS011;9172;49.948;9.208;2022-10-16T03:22:43;4.73;;;1.07;;
18090;SDS011;9172;49.948;9.208;2022-10-16T03:25:13;3.97;;;0.90;;
18090;SDS011;9172;49.948;9.208;2022-10-16T03:27:41;3.47;;;1.00;;
18090;SDS011;9172;49.948;9.208;2022-10-16T03:30:10;1.67;;;0.90;;
18090;SDS011;9172;49.948;9.208;2022-10-16T03:32:40;2.30;;;1.03;;
18090;SDS011;9172;49.948;9.208;2022-10-16T03:35:08;4.30;;;1.40;;
18090;SDS011;9172;49.948;9.208;2022-10-16T03:37:38;0.93;;;0.90;;
18090;SDS011;9172;49.948;9.208;2022-10-16T03:40:09;0.80;;;0.80;;
18090;SDS011;9172;49.948;9.208;2022-10-16T03:42:38;3.80;;;1.20;;
18090;SDS011;9172;49.948;9.208;2022-10-16T03:45:07;1.60;;;1.10;;
18090;SDS011;9172;49.948;9.208;2022-10-16T03:47:37;5.53;;;1.17;;
18090;SDS011;9172;49.948;9.208;2022-10-16T03:50:07;2.43;;;1.00;;
18090;SDS011;9172;49.948;9.208;2022-10-16T03:52:36;4.93;;;1.20;;
18090;SDS011;9172;49.948;9.208;2022-10-16T03:55:06;1.00;;;0.90;;
18090;SDS011;9172;49.948;9.208;2022-10-16T03:57:35;2.93;;;1.40;;
18090;SDS011;9172;49.948;9.208;2022-10-16T04:00:04;1.00;;;0.90;;
18090;SDS011;9172;49.948;9.208;2022-10-16T04:02:34;2.57;;;1.37;;
18090;SDS011;9172;49.948;9.208;2022-10-16T04:05:03;1.90;;;1.40;;
18090;SDS011;9172;49.948;9.208;2022-10-16T04:07:33;1.73;;;1.20;;
18090;SDS011;9172;49.948;9.208;2022-10-16T04:10:02;1.23;;;1.13;;
18090;SDS011;9172;49.948;9.208;2022-10-16T04:12:33;1.37;;;1.10;;
18090;SDS011;9172;49.948;9.208;2022-10-16T04:15:02;1.40;;;1.10;;
18090;SDS011;9172;49.948;9.208;2022-10-16T04:17:32;1.20;;;0.93;;
18090;SDS011;9172;49.948;9.208;2022-10-16T04:20:00;1.30;;;1.10;;
18090;SDS011;9172;49.948;9.208;2022-10-16T04:22:29;1.50;;;1.10;;
18090;SDS011;9172;49.948;9.208;2022-10-16T04:24:57;1.47;;;1.33;;
18090;SDS011;9172;49.948;9.208;2022-10-16T04:27:26;1.83;;;1.30;;
18090;SDS011;9172;49.948;9.208;2022-10-16T04:29:57;1.63;;;1.10;;
18090;SDS011;9172;49.948;9.208;2022-10-16T04:32:26;2.33;;;2.10;;
18090;SDS011;9172;49.948;9.208;2022-10-16T04:34:56;2.90;;;1.80;;
18090;SDS011;9172;49.948;9.208;2022-10-16T04:37:25;2.63;;;1.20;;
18090;SDS011;9172;49.948;9.208;2022-10-16T04:39:54;1.10;;;0.90;;
18090;SDS011;9172;49.948;9.208;2022-10-16T04:42:23;1.10;;;0.90;;
18090;SDS011;9172;49.948;9.208;2022-10-16T04:44:51;1.40;;;1.00;;
18090;SDS011;9172;49.948;9.208;2022-10-16T04:47:20;0.77;;;0.67;;
18090;SDS011;9172;49.948;9.208;2022-10-16T04:49:48;1.53;;;0.93;;
18090;SDS011;9172;49.948;9.208;2022-10-16T04:52:17;2.27;;;0.80;;
18090;SDS011;9172;49.948;9.208;2022-10-16T04:54:47;1.90;;;1.10;;
18090;SDS011;9172;49.948;9.208;2022-10-16T04:57:16;2.10;;;0.80;;
18090;SDS011;9172;49.948;9.208;2022-10-16T04:59:45;3.77;;;1.30;;
18090;SDS011;9172;49.948;9.208;2022-10-16T05:02:13;1.20;;;0.87;;
18090;SDS011;9172;49.948;9.208;2022-10-16T05:04:43;1.20;;;1.00;;
18090;SDS011;9172;49.948;9.208;2022-10-16T05:07:12;2.53;;;1.00;;
18090;SDS011;9172;49.948;9.208;2022-10-16T05:09:42;3.33;;;0.80;;
18090;SDS011;9172;49.948;9.208;2022-10-16T05:12:10;3.30;;;0.90;;
18090;SDS011;9172;49.948;9.208;2022-10-16T05:14:40;2.50;;;0.70;;
18090;SDS011;9172;49.948;9.208;2022-10-16T05:17:08;2.77;;;1.03;;
18090;SDS011;9172;49.948;9.208;2022-10-16T05:19:39;5.17;;;1.00;;
18090;SDS011;9172;49.948;9.208;2022-10-16T05:22:08;1.83;;;1.00;;
18090;SDS011;9172;49.948;9.208;2022-10-16T05:24:45;1.37;;;0.80;;
18090;SDS011;9172;49.948;9.208;2022-10-16T05:27:15;1.57;;;0.97;;
18090;SDS011;9172;49.948;9.208;2022-10-16T05:29:45;5.47;;;0.93;;
18090;SDS011;9172;49.948;9.208;2022-10-16T05:32:22;1.63;;;1.00;;
18090;SDS011;9172;49.948;9.208;2022-10-16T05:34:51;8.83;;;2.47;;
18090;SDS011;9172;49.948;9.208;2022-10-16T05:37:28;1.30;;;1.10;;
18090;SDS011;9172;49.948;9.208;2022-10-16T05:39:57;3.77;;;1.50;;
18090;SDS011;9172;49.948;9.208;2022-10-16T05:42:26;2.03;;;1.10;;
18090;SDS011;9172;49.948;9.208;2022-10-16T05:44:55;3.87;;;1.87;;
18090;SDS011;9172;49.948;9.208;2022-10-16T05:50:00;3.13;;;1.93;;
18090;SDS011;9172;49.948;9.208;2022-10-16T05:52:30;2.90;;;2.03;;
18090;SDS011;9172;49.948;9.208;2022-10-16T05:54:59;2.87;;;1.57;;
18090;SDS011;9172;49.948;9.208;2022-10-16T05:57:27;6.57;;;1.50;;
18090;SDS011;9172;49.948;9.208;2022-10-16T05:59:57;2.43;;;1.27;;
18090;SDS011;9172;49.948;9.208;2022-10-16T06:02:26;3.03;;;1.20;;
18090;SDS011;9172;49.948;9.208;2022-10-16T06:04:55;1.33;;;1.00;;
18090;SDS011;9172;49.948;9.208;2022-10-16T06:07:24;2.03;;;1.10;;
18090;SDS011;9172;49.948;9.208;2022-10-16T06:09:54;1.30;;;1.10;;
18090;SDS011;9172;49.948;9.208;2022-10-16T06:12:23;3.87;;;0.90;;
18090;SDS011;9172;49.948;9.208;2022-10-16T06:14:54;3.07;;;1.30;;
18090;SDS011;9172;49.948;9.208;2022-10-16T06:17:23;9.53;;;1.20;;
18090;SDS011;9172;49.948;9.208;2022-10-16T06:19:52;2.03;;;1.10;;
18090;SDS011;9172;49.948;9.208;2022-10-16T06:22:21;4.93;;;0.97;;
18090;SDS011;9172;49.948;9.208;2022-10-16T06:24:50;2.30;;;1.30;;
18090;SDS011;9172;49.948;9.208;2022-10-16T06:27:18;1.60;;;1.00;;
18090;SDS011;9172;49.948;9.208;2022-10-16T06:29:47;2.80;;;1.20;;
18090;SDS011;9172;49.948;9.208;2022-10-16T06:32:17;5.33;;;1.53;;
18090;SDS011;9172;49.948;9.208;2022-10-16T06:34:45;3.67;;;1.50;;
18090;SDS011;9172;49.948;9.208;2022-10-16T06:37:14;1.97;;;1.27;;
18090;SDS011;9172;49.948;9.208;2022-10-16T06:39:43;2.43;;;1.30;;
18090;SDS011;9172;49.948;9.208;2022-10-16T06:42:12;3.30;;;1.20;;
18090;SDS011;9172;49.948;9.208;2022-10-16T06:44:41;6.17;;;1.30;;
18090;SDS011;9172;49.948;9.208;2022-10-16T06:47:11;3.80;;;1.20;;
18090;SDS011;9172;49.948;9.208;2022-10-16T06:49:39;7.43;;;1.10;;
18090;SDS011;9172;49.948;9.208;2022-10-16T06:52:08;7.00;;;1.37;;
18090;SDS011;9172;49.948;9.208;2022-10-16T06:54:37;6.97;;;1.40;;
18090;SDS011;9172;49.948;9.208;2022-10-16T06:57:06;3.90;;;1.47;;
18090;SDS011;9172;49.948;9.208;2022-10-16T06:59:34;4.40;;;2.03;;
18090;SDS011;9172;49.948;9.208;2022-10-16T07:02:03;2.30;;;1.17;;
18090;SDS011;9172;49.948;9.208;2022-10-16T07:04:33;1.33;;;1.13;;
18090;SDS011;9172;49.948;9.208;2022-10-16T07:07:02;2.80;;;1.10;;
18090;SDS011;9172;49.948;9.208;2022-10-16T07:11:59;2.97;;;1.30;;
18090;SDS011;9172;49.948;9.208;2022-10-16T07:14:29;2.23;;;1.10;;
18090;SDS011;9172;49.948;9.208;2022-10-16T07:16:58;3.40;;;1.10;;
18090;SDS011;9172;49.948;9.208;2022-10-16T07:19:28;3.47;;;1.20;;
18090;SDS011;9172;49.948;9.208;2022-10-16T07:21:57;3.90;;;1.30;;
18090;SDS011;9172;49.948;9.208;2022-10-16T07:24:26;2.93;;;1.17;;
18090;SDS011;9172;49.948;9.208;2022-10-16T07:26:54;4.30;;;1.17;;
18090;SDS011;9172;49.948;9.208;2022-10-16T07:29:24;4.47;;;1.37;;
18090;SDS011;9172;49.948;9.208;2022-10-16T07:31:52;2.37;;;0.77;;
18090;SDS011;9172;49.948;9.208;2022-10-16T07:34:21;1.77;;;1.13;;
18090;SDS011;9172;49.948;9.208;2022-10-16T07:36:50;1.10;;;1.00;;
18090;SDS011;9172;49.948;9.208;2022-10-16T07:39:18;3.13;;;1.30;;
18090;SDS011;9172;49.948;9.208;2022-10-16T07:41:47;2.00;;;1.03;;
18090;SDS011;9172;49.948;9.208;2022-10-16T07:44:16;4.10;;;0.90;;
18090;SDS011;9172;49.948;9.208;2022-10-16T07:46:44;2.40;;;1.80;;
18090;SDS011;9172;49.948;9.208;2022-10-16T07:49:13;2.57;;;1.70;;
18090;SDS011;9172;49.948;9.208;2022-10-16T07:51:42;3.00;;;1.30;;
18090;SDS011;9172;49.948;9.208;2022-10-16T07:54:10;2.17;;;1.23;;
18090;SDS011;9172;49.948;9.208;2022-10-16T07:56:39;5.40;;;1.37;;
18090;SDS011;9172;49.948;9.208;2022-10-16T07:59:08;4.83;;;2.03;;
18090;SDS011;9172;49.948;9.208;2022-10-16T08:01:36;2.77;;;1.87;;
18090;SDS011;9172;49.948;9.208;2022-10-16T08:04:05;3.53;;;1.43;;
18090;SDS011;9172;49.948;9.208;2022-10-16T08:06:35;2.13;;;1.40;;
18090;SDS011;9172;49.948;9.208;2022-10-16T08:09:05;2.23;;;1.20;;
18090;SDS011;9172;49.948;9.208;2022-10-16T08:11:34;1.10;;;0.90;;
18090;SDS011;9172;49.948;9.208;2022-10-16T08:14:04;2.00;;;1.07;;
18090;SDS011;9172;49.948;9.208;2022-10-16T08:16:33;1.33;;;0.90;;
18090;SDS011;9172;49.948;9.208;2022-10-16T08:19:02;1.40;;;1.10;;
18090;SDS011;9172;49.948;9.208;2022-10-16T08:21:31;1.87;;;1.30;;
18090;SDS011;9172;49.948;9.208;2022-10-16T08:23:59;2.03;;;1.10;;
18090;SDS011;9172;49.948;9.208;2022-10-16T08:26:29;2.07;;;1.00;;
18090;SDS011;9172;49.948;9.208;2022-10-16T08:28:57;1.93;;;0.90;;
18090;SDS011;9172;49.948;9.208;2022-10-16T08:31:26;2.37;;;1.20;;
18090;SDS011;9172;49.948;9.208;2022-10-16T08:33:56;2.23;;;1.03;;
18090;SDS011;9172;49.948;9.208;2022-10-16T08:36:25;2.90;;;1.10;;
18090;SDS011;9172;49.948;9.208;2022-10-16T08:38:53;1.80;;;0.93;;
18090;SDS011;9172;49.948;9.208;2022-10-16T08:41:46;1.30;;;0.80;;
18090;SDS011;9172;49.948;9.208;2022-10-16T08:47:40;1.70;;;0.67;;
18090;SDS011;9172;49.948;9.208;2022-10-16T08:50:13;3.27;;;0.90;;
18090;SDS011;9172;49.948;9.208;2022-10-16T08:52:46;2.20;;;0.90;;
18090;SDS011;9172;49.948;9.208;2022-10-16T08:55:23;2.83;;;1.00;;
18090;SDS011;9172;49.948;9.208;2022-10-16T08:58:00;2.20;;;0.90;;
18090;SDS011;9172;49.948;9.208;2022-10-16T09:00:29;0.80;;;0.60;;
18090;SDS011;9172;49.948;9.208;2022-10-16T09:03:02;1.77;;;0.97;;
18090;SDS011;9172;49.948;9.208;2022-10-16T09:05:38;2.13;;;0.83;;
18090;SDS011;9172;49.948;9.208;2022-10-16T09:08:19;0.90;;;0.70;;
18090;SDS011;9172;49.948;9.208;2022-10-16T09:10:52;1.67;;;0.83;;
18090;SDS011;9172;49.948;9.208;2022-10-16T09:13:27;1.10;;;0.80;;
18090;SDS011;9172;49.948;9.208;2022-10-16T09:16:01;4.63;;;1.03;;
18090;SDS011;9172;49.948;9.208;2022-10-16T09:18:34;1.87;;;0.97;;
18090;SDS011;9172;49.948;9.208;2022-10-16T09:21:07;2.47;;;0.90;;
18090;SDS011;9172;49.948;9.208;2022-10-16T09:23:38;1.10;;;0.80;;
18090;SDS011;9172;49.948;9.208;2022-10-16T09:26:09;3.13;;;1.10;;
18090;SDS011;9172;49.948;9.208;2022-10-16T09:28:40;1.77;;;0.97;;
18090;SDS011;9172;49.948;9.208;2022-10-16T09:31:14;4.03;;;1.00;;
18090;SDS011;9172;49.948;9.208;2022-10-16T09:33:47;5.57;;;1.20;;
18090;SDS011;9172;49.948;9.208;2022-10-16T09:36:19;1.73;;;1.03;;
18090;SDS011;9172;49.948;9.208;2022-10-16T09:38:50;2.73;;;1.10;;
18090;SDS011;9172;49.948;9.208;2022-10-16T09:41:21;2.00;;;1.30;;
18090;SDS011;9172;49.948;9.208;2022-10-16T09:43:53;4.63;;;1.17;;
18090;SDS011;9172;49.948;9.208;2022-10-16T09:46:27;2.67;;;1.00;;
18090;SDS011;9172;49.948;9.208;2022-10-16T09:48:58;2.27;;;1.20;;
18090;SDS011;9172;49.948;9.208;2022-10-16T09:51:29;3.40;;;1.17;;
18090;SDS011;9172;49.948;9.208;2022-10-16T09:53:59;5.03;;;1.10;;
18090;SDS011;9172;49.948;9.208;2022-10-16T09:56:30;2.13;;;1.33;;
18090;SDS011;9172;49.948;9.208;2022-10-16T09:59:03;3.43;;;1.07;;
18090;SDS011;9172;49.948;9.208;2022-10-16T10:01:38;6.43;;;1.60;;
18090;SDS011;9172;49.948;9.208;2022-10-16T10:04:09;2.33;;;1.50;;
18090;SDS011;9172;49.948;9.208;2022-10-16T10:06:41;2.90;;;1.30;;
18090;SDS011;9172;49.948;9.208;2022-10-16T10:09:16;2.80;;;1.20;;
18090;SDS011;9172;49.948;9.208;2022-10-16T10:11:48;2.50;;;1.33;;
18090;SDS011;9172;49.948;9.208;2022-10-16T10:14:24;2.70;;;1.10;;
18090;SDS011;9172;49.948;9.208;2022-10-16T10:17:08;4.63;;;1.50;;
18090;SDS011;9172;49.948;9.208;2022-10-16T10:19:42;6.60;;;1.20;;
18090;SDS011;9172;49.948;9.208;2022-10-16T10:22:19;4.73;;;1.20;;
18090;SDS011;9172;49.948;9.208;2022-10-16T10:25:04;3.20;;;1.40;;
18090;SDS011;9172;49.948;9.208;2022-10-16T10:27:56;1.90;;;1.33;;
18090;SDS011;9172;49.948;9.208;2022-10-16T10:30:32;1.10;;;0.80;;
18090;SDS011;9172;49.948;9.208;2022-10-16T10:33:07;10.47;;;1.53;;
18090;SDS011;9172;49.948;9.208;2022-10-16T10:35:42;1.17;;;0.90;;
18090;SDS011;9172;49.948;9.208;2022-10-16T10:38:18;1.90;;;1.17;;
18090;SDS011;9172;49.948;9.208;2022-10-16T10:40:56;2.30;;;1.20;;
18090;SDS011;9172;49.948;9.208;2022-10-16T10:43:37;1.27;;;1.17;;
18090;SDS011;9172;49.948;9.208;2022-10-16T10:46:09;4.60;;;1.03;;
18090;SDS011;9172;49.948;9.208;2022-10-16T10:48:44;1.43;;;0.90;;
18090;SDS011;9172;49.948;9.208;2022-10-16T10:51:28;3.03;;;1.03;;
18090;SDS011;9172;49.948;9.208;2022-10-16T10:54:02;4.20;;;1.10;;
18090;SDS011;9172;49.948;9.208;2022-10-16T10:56:46;1.93;;;0.80;;
18090;SDS011;9172;49.948;9.208;2022-10-16T10:59:30;1.77;;;1.07;;
18090;SDS011;9172;49.948;9.208;2022-10-16T11:02:15;1.80;;;1.00;;
18090;SDS011;9172;49.948;9.208;2022-10-16T11:07:57;1.27;;;0.90;;
18090;SDS011;9172;49.948;9.208;2022-10-16T11:10:28;0.83;;;0.70;;
18090;SDS011;9172;49.948;9.208;2022-10-16T11:13:02;2.17;;;0.60;;
18090;SDS011;9172;49.948;9.208;2022-10-16T11:15:35;1.43;;;0.80;;
18090;SDS011;9172;49.948;9.208;2022-10-16T11:18:06;5.07;;;1.17;;
18090;SDS011;9172;49.948;9.208;2022-10-16T11:20:39;1.27;;;0.80;;
18090;SDS011;9172;49.948;9.208;2022-10-16T11:23:13;2.43;;;0.80;;
18090;SDS011;9172;49.948;9.208;2022-10-16T11:25:45;1.07;;;0.73;;
18090;SDS011;9172;49.948;9.208;2022-10-16T11:30:53;4.57;;;1.00;;
18090;SDS011;9172;49.948;9.208;2022-10-16T11:33:26;0.80;;;0.57;;
18090;SDS011;9172;49.948;9.208;2022-10-16T11:36:06;0.97;;;0.70;;
18090;SDS011;9172;49.948;9.208;2022-10-16T11:38:40;1.00;;;0.83;;
18090;SDS011;9172;49.948;9.208;2022-10-16T11:41:15;1.80;;;0.83;;
18090;SDS011;9172;49.948;9.208;2022-10-16T11:43:49;1.33;;;0.70;;
18090;SDS011;9172;49.948;9.208;2022-10-16T11:46:22;1.23;;;0.70;;
18090;SDS011;9172;49.948;9.208;2022-10-16T11:48:54;0.83;;;0.63;;
18090;SDS011;9172;49.948;9.208;2022-10-16T11:51:26;1.70;;;0.93;;
18090;SDS011;9172;49.948;9.208;2022-10-16T11:53:59;1.97;;;1.03;;
18090;SDS011;9172;49.948;9.208;2022-10-16T11:56:32;1.07;;;0.87;;
18090;SDS011;9172;49.948;9.208;2022-10-16T11:59:05;3.53;;;0.90;;
18090;SDS011;9172;49.948;9.208;2022-10-16T12:01:44;1.53;;;0.67;;
18090;SDS011;9172;49.948;9.208;2022-10-16T12:04:18;1.23;;;0.80;;
18090;SDS011;9172;49.948;9.208;2022-10-16T12:09:38;2.77;;;1.10;;
18090;SDS011;9172;49.948;9.208;2022-10-16T12:12:23;1.00;;;0.80;;
18090;SDS011;9172;49.948;9.208;2022-10-16T12:15:00;2.57;;;0.83;;
18090;SDS011;9172;49.948;9.208;2022-10-16T12:17:35;4.77;;;0.90;;
18090;SDS011;9172;49.948;9.208;2022-10-16T12:20:20;1.57;;;0.93;;
18090;SDS011;9172;49.948;9.208;2022-10-16T12:22:53;2.03;;;1.00;;
18090;SDS011;9172;49.948;9.208;2022-10-16T12:25:24;4.90;;;0.93;;
18090;SDS011;9172;49.948;9.208;2022-10-16T12:27:55;1.67;;;1.00;;
18090;SDS011;9172;49.948;9.208;2022-10-16T12:30:26;1.60;;;1.00;;
18090;SDS011;9172;49.948;9.208;2022-10-16T12:32:57;2.20;;;1.00;;
18090;SDS011;9172;49.948;9.208;2022-10-16T12:35:29;4.37;;;0.80;;
18090;SDS011;9172;49.948;9.208;2022-10-16T12:38:15;2.43;;;0.97;;
18090;SDS011;9172;49.948;9.208;2022-10-16T12:40:45;1.73;;;1.00;;
18090;SDS011;9172;49.948;9.208;2022-10-16T12:43:27;2.60;;;0.80;;
18090;SDS011;9172;49.948;9.208;2022-10-16T12:46:05;1.33;;;0.83;;
18090;SDS011;9172;49.948;9.208;2022-10-16T12:48:49;5.03;;;1.20;;
18090;SDS011;9172;49.948;9.208;2022-10-16T12:51:22;4.50;;;1.00;;
18090;SDS011;9172;49.948;9.208;2022-10-16T12:53:59;1.33;;;0.77;;
18090;SDS011;9172;49.948;9.208;2022-10-16T12:56:33;2.80;;;0.80;;
18090;SDS011;9172;49.948;9.208;2022-10-16T12:59:08;2.77;;;1.17;;
18090;SDS011;9172;49.948;9.208;2022-10-16T13:01:42;2.23;;;1.00;;
18090;SDS011;9172;49.948;9.208;2022-10-16T13:04:21;1.10;;;0.80;;
18090;SDS011;9172;49.948;9.208;2022-10-16T13:09:41;5.13;;;0.93;;
18090;SDS011;9172;49.948;9.208;2022-10-16T13:12:19;1.07;;;0.87;;
18090;SDS011;9172;49.948;9.208;2022-10-16T13:14:59;1.03;;;0.90;;
18090;SDS011;9172;49.948;9.208;2022-10-16T13:17:33;1.10;;;1.00;;
18090;SDS011;9172;49.948;9.208;2022-10-16T13:20:07;1.73;;;0.70;;
18090;SDS011;9172;49.948;9.208;2022-10-16T13:22:40;4.17;;;0.90;;
18090;SDS011;9172;49.948;9.208;2022-10-16T13:25:15;1.00;;;0.80;;
18090;SDS011;9172;49.948;9.208;2022-10-16T13:27:49;2.57;;;0.83;;
18090;SDS011;9172;49.948;9.208;2022-10-16T13:30:20;1.23;;;0.77;;
18090;SDS011;9172;49.948;9.208;2022-10-16T13:33:04;3.53;;;0.80;;
18090;SDS011;9172;49.948;9.208;2022-10-16T13:35:31;3.00;;;0.97;;
18090;SDS011;9172;49.948;9.208;2022-10-16T13:38:06;3.53;;;0.80;;
18090;SDS011;9172;49.948;9.208;2022-10-16T13:40:49;1.40;;;0.83;;
18090;SDS011;9172;49.948;9.208;2022-10-16T13:43:20;1.00;;;0.80;;
18090;SDS011;9172;49.948;9.208;2022-10-16T13:45:56;1.70;;;1.10;;
18090;SDS011;9172;49.948;9.208;2022-10-16T13:48:27;5.53;;;1.07;;
18090;SDS011;9172;49.948;9.208;2022-10-16T13:51:04;2.77;;;1.10;;
18090;SDS011;9172;49.948;9.208;2022-10-16T13:53:35;1.30;;;0.97;;
18090;SDS011;9172;49.948;9.208;2022-10-16T13:56:05;2.97;;;1.07;;
18090;SDS011;9172;49.948;9.208;2022-10-16T13:58:36;3.80;;;0.90;;
18090;SDS011;9172;49.948;9.208;2022-10-16T14:01:05;3.00;;;1.53;;
18090;SDS011;9172;49.948;9.208;2022-10-16T14:03:41;1.77;;;1.00;;
18090;SDS011;9172;49.948;9.208;2022-10-16T14:06:12;1.47;;;1.00;;
18090;SDS011;9172;49.948;9.208;2022-10-16T14:08:44;2.40;;;1.07;;
18090;SDS011;9172;49.948;9.208;2022-10-16T14:11:20;3.87;;;1.07;;
18090;SDS011;9172;49.948;9.208;2022-10-16T14:13:50;1.13;;;1.03;;
18090;SDS011;9172;49.948;9.208;2022-10-16T14:16:20;6.53;;;1.17;;
18090;SDS011;9172;49.948;9.208;2022-10-16T14:18:55;2.47;;;1.60;;
18090;SDS011;9172;49.948;9.208;2022-10-16T14:21:28;3.40;;;1.67;;
18090;SDS011;9172;49.948;9.208;2022-10-16T14:23:59;2.77;;;2.00;;
18090;SDS011;9172;49.948;9.208;2022-10-16T14:26:29;8.13;;;1.70;;
18090;SDS011;9172;49.948;9.208;2022-10-16T14:29:02;2.10;;;1.50;;
18090;SDS011;9172;49.948;9.208;2022-10-16T14:31:35;2.23;;;1.33;;
18090;SDS011;9172;49.948;9.208;2022-10-16T14:34:22;4.90;;;1.10;;
18090;SDS011;9172;49.948;9.208;2022-10-16T14:36:53;4.27;;;1.10;;
18090;SDS011;9172;49.948;9.208;2022-10-16T14:39:23;1.40;;;1.00;;
18090;SDS011;9172;49.948;9.208;2022-10-16T14:41:55;9.10;;;1.10;;
18090;SDS011;9172;49.948;9.208;2022-10-16T14:44:29;3.77;;;1.13;;
18090;SDS011;9172;49.948;9.208;2022-10-16T14:47:07;3.43;;;1.17;;
18090;SDS011;9172;49.948;9.208;2022-10-16T14:49:38;3.97;;;1.30;;
18090;SDS011;9172;49.948;9.208;2022-10-16T14:52:09;2.53;;;1.30;;
18090;SDS011;9172;49.948;9.208;2022-10-16T14:54:42;8.47;;;1.20;;
18090;SDS011;9172;49.948;9.208;2022-10-16T14:57:16;2.97;;;1.83;;
18090;SDS011;9172;49.948;9.208;2022-10-16T14:59:46;3.67;;;1.37;;
18090;SDS011;9172;49.948;9.208;2022-10-16T15:02:18;10.97;;;1.53;;
18090;SDS011;9172;49.948;9.208;2022-10-16T15:04:50;5.30;;;1.70;;
18090;SDS011;9172;49.948;9.208;2022-10-16T15:07:18;5.83;;;1.63;;
18090;SDS011;9172;49.948;9.208;2022-10-16T15:09:47;3.90;;;1.27;;
18090;SDS011;9172;49.948;9.208;2022-10-16T15:12:15;7.10;;;1.70;;
18090;SDS011;9172;49.948;9.208;2022-10-16T15:14:44;4.83;;;1.47;;
18090;SDS011;9172;49.948;9.208;2022-10-16T15:17:14;13.87;;;2.20;;
18090;SDS011;9172;49.948;9.208;2022-10-16T15:19:42;4.53;;;1.93;;
18090;SDS011;9172;49.948;9.208;2022-10-16T15:22:11;3.57;;;1.70;;
18090;SDS011;9172;49.948;9.208;2022-10-16T15:24:40;3.50;;;2.00;;
18090;SDS011;9172;49.948;9.208;2022-10-16T15:27:09;4.60;;;1.97;;
18090;SDS011;9172;49.948;9.208;2022-10-16T15:29:38;20.47;;;3.50;;
18090;SDS011;9172;49.948;9.208;2022-10-16T15:32:09;7.30;;;4.23;;
18090;SDS011;9172;49.948;9.208;2022-10-16T15:34:38;6.57;;;4.33;;
18090;SDS011;9172;49.948;9.208;2022-10-16T15:37:06;14.53;;;4.17;;
18090;SDS011;9172;49.948;9.208;2022-10-16T15:39:37;10.63;;;3.83;;
18090;SDS011;9172;49.948;9.208;2022-10-16T15:42:07;9.20;;;3.53;;
18090;SDS011;9172;49.948;9.208;2022-10-16T15:44:36;8.70;;;2.40;;
18090;SDS011;9172;49.948;9.208;2022-10-16T15:47:05;4.47;;;2.17;;